KOVS

Boscobel Airport

Boscobel, Wisconsin, USA
METAR KOVS 211411Z AUTO 04004KT 4SM -RA BR OVC012 11/09 A3010 RMK AO2 P0005 T01110094
Observed Flight Rules
May-21 @ 14:11 UTC (37 minutes ago) Marginal Visual Flight Rules
Wind Visibility Clouds Conditions
40° at 4 knots 4 miles
  • Overcast at 1,200' AGL
  • Light Rain
  • Mist
Temperatures Readings Precipitation
Current 11°C / 52°F
Dewpoint 9°C / 48°F
Humidity 88%
Altimeter 30.1" Hg
Pressure 1019 hPa
Elevation 202
Current Rain 0.05
METAR KOVS 211411Z AUTO 04004KT 4SM -RA BR OVC012 11/09 A3010 RMK AO2 P0005 T01110094
Observed Flight Rules
May-21 @ 14:11 UTC
(37 minutes ago)
MVFR
Wind Visibility
40° at 4 knots 4 miles
Clouds
  • Overcast at 1,200' AGL
Conditions
  • Light Rain
  • Mist
Temperature Dewpoint
11°C / 52°F 9°C / 48°F
Humidity Altimeter Pressure
88% 30.1" Hg 1019 hPa
Current Rain
0.05